Time;durP1;ratioP1;P1;durP2;ratioP2;P2;SDS_P1;SDS_P2;PMS_P1;PMS_P2;Temp;Humidity;BMP_temperature;BMP_pressure;BME280_temperature;BME280_humidity;BME280_pressure;Samples;Min_cycle;Max_cycle;Signal;HPM_P1;HPM_P2
2023/01/15 00:01:23;;;;;;;1.43;1.10;;;12.00;1.00;;;;;;4971110;28;20184;-78
2023/01/15 00:03:49;;;;;;;1.97;0.90;;;12.00;1.00;;;;;;4970533;28;20188;-78
2023/01/15 00:06:18;;;;;;;1.20;0.90;;;12.10;1.00;;;;;;4970553;28;21024;-78
2023/01/15 00:08:44;;;;;;;1.30;1.20;;;12.10;1.00;;;;;;4974765;28;20474;-78
2023/01/15 00:11:10;;;;;;;2.27;1.03;;;12.00;1.00;;;;;;4975492;28;20443;-78
2023/01/15 00:13:35;;;;;;;1.30;1.00;;;12.00;1.00;;;;;;4973135;28;20215;-78
2023/01/15 00:16:14;;;;;;;1.73;1.13;;;12.00;1.00;;;;;;4974548;28;20186;-78
2023/01/15 00:18:40;;;;;;;1.20;0.90;;;11.90;1.00;;;;;;4971638;28;20229;-77
2023/01/15 00:21:09;;;;;;;1.20;1.10;;;11.90;1.00;;;;;;4975788;28;20897;-77
2023/01/15 00:29:05;;;;;;;1.47;1.00;;;11.80;5.10;;;;;;4967434;28;20470;-78
2023/01/15 00:31:34;;;;;;;2.00;1.13;;;11.70;9.80;;;;;;4969225;28;20944;-77
2023/01/15 00:34:00;;;;;;;1.30;1.10;;;11.60;12.70;;;;;;4969231;28;20311;-77
2023/01/15 00:36:25;;;;;;;2.13;1.30;;;11.50;14.90;;;;;;4972789;28;20442;-78
2023/01/15 00:38:51;;;;;;;1.50;1.10;;;11.40;20.30;;;;;;4968839;28;20455;-78
2023/01/15 00:41:17;;;;;;;1.77;1.00;;;11.30;22.70;;;;;;4972248;28;20184;-77
2023/01/15 00:43:43;;;;;;;2.17;1.10;;;11.30;25.60;;;;;;4980290;28;20518;-78
2023/01/15 00:46:08;;;;;;;2.40;1.03;;;11.20;27.10;;;;;;4980054;28;20735;-78
2023/01/15 00:48:35;;;;;;;1.63;1.00;;;11.20;29.20;;;;;;4972010;28;20203;-78
2023/01/15 00:51:01;;;;;;;3.43;1.00;;;11.20;28.70;;;;;;4979648;28;20861;-77
2023/01/15 00:53:26;;;;;;;2.60;1.40;;;11.10;37.60;;;;;;4969307;28;20483;-77
2023/01/15 00:55:52;;;;;;;1.50;1.00;;;11.10;38.40;;;;;;4967099;28;20180;-78
2023/01/15 00:58:17;;;;;;;1.67;0.90;;;11.10;33.00;;;;;;4975527;28;20200;-76
2023/01/15 01:00:43;;;;;;;1.30;1.20;;;11.10;38.40;;;;;;4969697;28;20183;-77
2023/01/15 01:03:08;;;;;;;1.30;0.90;;;11.10;29.40;;;;;;4969065;28;20203;-77
2023/01/15 01:05:34;;;;;;;2.63;1.00;;;11.20;31.90;;;;;;4963773;28;20184;-77
2023/01/15 01:08:00;;;;;;;1.13;0.90;;;11.20;30.20;;;;;;4970292;28;20215;-78
2023/01/15 01:10:26;;;;;;;2.00;1.53;;;11.20;32.30;;;;;;4972183;28;20171;-77
2023/01/15 01:12:52;;;;;;;1.77;1.00;;;11.20;27.80;;;;;;4970471;28;20213;-77
2023/01/15 01:15:19;;;;;;;4.47;1.00;;;11.20;30.00;;;;;;4970115;28;21227;-77
2023/01/15 01:17:45;;;;;;;1.83;1.10;;;11.20;33.70;;;;;;4974520;28;20446;-78
2023/01/15 01:20:14;;;;;;;1.37;0.80;;;11.20;33.20;;;;;;4971449;28;20467;-77
2023/01/15 01:22:40;;;;;;;1.50;1.20;;;11.20;32.70;;;;;;4964970;28;20270;-78
2023/01/15 01:25:07;;;;;;;1.20;0.93;;;11.20;30.90;;;;;;4970917;28;20443;-76
2023/01/15 01:27:32;;;;;;;1.17;0.77;;;11.30;31.80;;;;;;4970708;28;20199;-77
2023/01/15 01:29:58;;;;;;;10.43;1.10;;;11.60;25.00;;;;;;4971530;28;20474;-76
2023/01/15 01:32:23;;;;;;;1.07;0.97;;;11.40;27.20;;;;;;4983374;28;20211;-77
2023/01/15 01:34:49;;;;;;;1.40;0.80;;;11.40;25.60;;;;;;4968693;28;20226;-76
2023/01/15 01:37:14;;;;;;;1.07;0.90;;;11.40;22.70;;;;;;4969504;28;20184;-77
2023/01/15 01:39:40;;;;;;;1.10;0.90;;;11.50;24.30;;;;;;4970340;28;20291;-77
2023/01/15 01:42:15;;;;;;;1.70;1.10;;;11.50;23.70;;;;;;4970122;28;20271;-77
2023/01/15 01:44:44;;;;;;;1.00;0.83;;;11.60;23.70;;;;;;4969984;28;20262;-77
2023/01/15 01:47:22;;;;;;;2.23;1.00;;;11.60;21.00;;;;;;4969866;28;20463;-77
2023/01/15 01:49:55;;;;;;;1.40;1.00;;;11.70;20.30;;;;;;4970400;28;20446;-78
2023/01/15 01:52:27;;;;;;;1.73;0.97;;;11.70;21.10;;;;;;4969923;28;20470;-77
2023/01/15 01:54:53;;;;;;;1.43;0.80;;;11.70;19.20;;;;;;4968572;28;20431;-77
2023/01/15 01:57:20;;;;;;;1.27;0.80;;;11.80;17.80;;;;;;4968225;28;20523;-77
2023/01/15 01:59:47;;;;;;;1.30;0.80;;;11.80;17.80;;;;;;4970064;28;20223;-77
2023/01/15 02:02:16;;;;;;;1.33;0.90;;;11.80;19.30;;;;;;4968515;28;20513;-77
2023/01/15 02:04:42;;;;;;;2.07;0.90;;;11.70;19.70;;;;;;4968793;28;20443;-78
2023/01/15 02:07:07;;;;;;;1.00;0.90;;;11.70;23.00;;;;;;4966173;28;20454;-77
2023/01/15 02:09:33;;;;;;;1.00;0.80;;;11.70;24.70;;;;;;4969879;28;20458;-77
2023/01/15 02:12:24;;;;;;;1.27;0.80;;;11.60;27.00;;;;;;4969113;28;20556;-77
2023/01/15 02:15:13;;;;;;;1.10;0.80;;;11.70;28.70;;;;;;4973601;28;20233;-77
2023/01/15 02:17:42;;;;;;;1.20;0.93;;;11.60;29.40;;;;;;4984783;28;20778;-77
2023/01/15 02:20:21;;;;;;;0.90;0.77;;;11.60;35.00;;;;;;4968989;28;21171;-78
2023/01/15 02:22:49;;;;;;;1.77;0.90;;;11.50;39.10;;;;;;4983626;28;20438;-77
2023/01/15 02:25:50;;;;;;;1.20;0.90;;;11.40;39.10;;;;;;4975400;28;20447;-77
2023/01/15 02:28:24;;;;;;;1.03;0.90;;;11.40;39.10;;;;;;4970472;28;20477;-77
2023/01/15 02:31:06;;;;;;;2.10;0.90;;;11.40;39.10;;;;;;4972848;28;20526;-77
2023/01/15 02:33:36;;;;;;;1.57;1.10;;;11.50;39.20;;;;;;4966965;28;21059;-77
2023/01/15 02:36:05;;;;;;;1.37;0.87;;;11.50;41.90;;;;;;4973408;28;20464;-77
2023/01/15 02:38:38;;;;;;;1.90;0.83;;;11.50;39.20;;;;;;4972219;28;20450;-77
2023/01/15 02:41:06;;;;;;;1.10;0.90;;;11.50;39.30;;;;;;4974942;28;20961;-76
2023/01/15 02:43:35;;;;;;;1.47;0.73;;;11.50;39.30;;;;;;4969973;28;20445;-77
2023/01/15 02:46:03;;;;;;;2.03;0.80;;;11.40;39.10;;;;;;4969803;28;20447;-76
2023/01/15 02:48:31;;;;;;;2.07;1.00;;;11.40;39.20;;;;;;4976076;28;20459;-77
2023/01/15 02:51:10;;;;;;;2.67;0.90;;;11.30;43.50;;;;;;4972474;28;20534;-77
2023/01/15 02:53:38;;;;;;;2.23;0.93;;;11.20;49.50;;;;;;4967017;28;20471;-78
2023/01/15 02:56:10;;;;;;;1.00;0.80;;;11.20;52.10;;;;;;4973792;28;20442;-77
2023/01/15 02:58:39;;;;;;;2.00;0.90;;;11.20;55.90;;;;;;4972321;28;20888;-77
2023/01/15 03:01:15;;;;;;;0.90;0.80;;;11.20;57.90;;;;;;4973756;28;20446;-77
2023/01/15 03:03:46;;;;;;;2.03;0.90;;;11.20;59.70;;;;;;4972251;28;20504;-78
2023/01/15 03:06:26;;;;;;;1.00;0.80;;;11.10;61.70;;;;;;4976668;28;21226;-78
2023/01/15 03:08:52;;;;;;;1.30;0.90;;;11.10;62.50;;;;;;4976666;28;20554;-78
2023/01/15 03:11:18;;;;;;;1.07;0.83;;;11.10;67.60;;;;;;4976300;28;20533;-77
2023/01/15 03:13:57;;;;;;;1.30;1.10;;;11.20;72.20;;;;;;4973329;28;20601;-78
2023/01/15 03:16:37;;;;;;;1.83;0.90;;;11.10;76.80;;;;;;4975396;28;20438;-78
2023/01/15 03:19:18;;;;;;;1.10;1.00;;;11.10;78.80;;;;;;4968752;28;20851;-78
2023/01/15 03:21:53;;;;;;;1.77;1.10;;;11.10;83.80;;;;;;4981818;28;20447;-78
2023/01/15 03:24:33;;;;;;;2.40;1.20;;;11.00;88.00;;;;;;4969845;28;21003;-78
2023/01/15 03:27:00;;;;;;;3.20;1.00;;;11.00;92.50;;;;;;4972620;28;20443;-77
2023/01/15 03:29:31;;;;;;;1.27;0.97;;;11.00;93.60;;;;;;4969259;28;20494;-80
2023/01/15 03:31:58;;;;;;;1.70;0.93;;;11.00;95.70;;;;;;4972152;28;20427;-81
2023/01/15 03:34:26;;;;;;;2.37;1.10;;;11.00;96.80;;;;;;4977187;28;20451;-82
2023/01/15 03:36:51;;;;;;;4.80;1.37;;;11.00;99.40;;;;;;4971383;28;20968;-78
2023/01/15 03:39:17;;;;;;;2.90;1.30;;;11.00;99.40;;;;;;4971243;28;20458;-78
2023/01/15 03:42:12;;;;;;;2.30;1.00;;;11.00;99.50;;;;;;4972013;28;20184;-78
2023/01/15 03:44:55;;;;;;;4.20;0.90;;;10.70;86.40;;;;;;4966088;28;20219;-78
2023/01/15 03:47:33;;;;;;;1.67;1.13;;;10.20;69.80;;;;;;4979835;28;20446;-78
2023/01/15 03:50:16;;;;;;;1.00;0.90;;;10.00;76.70;;;;;;4976057;28;20558;-78
2023/01/15 03:53:03;;;;;;;1.27;0.90;;;9.80;78.50;;;;;;4970988;28;20474;-78
2023/01/15 03:55:43;;;;;;;1.20;0.90;;;9.80;87.80;;;;;;4969836;28;20946;-77
2023/01/15 03:58:36;;;;;;;1.13;0.80;;;9.70;75.60;;;;;;4971235;28;20435;-78
2023/01/15 04:01:04;;;;;;;1.10;1.00;;;9.50;75.10;;;;;;4971763;28;20422;-78
2023/01/15 04:03:32;;;;;;;1.60;1.03;;;9.40;79.10;;;;;;4969472;28;20451;-79
2023/01/15 04:06:00;;;;;;;1.10;0.90;;;9.30;80.30;;;;;;4971324;28;20485;-78
2023/01/15 04:08:29;;;;;;;0.90;0.80;;;9.20;78.10;;;;;;4970849;28;20545;-77
2023/01/15 04:10:58;;;;;;;2.40;0.90;;;9.20;84.60;;;;;;4970744;28;20809;-80
2023/01/15 04:13:24;;;;;;;1.17;0.80;;;9.20;83.20;;;;;;4972936;28;20465;-79
2023/01/15 04:15:50;;;;;;;1.20;0.70;;;9.20;87.60;;;;;;4971354;28;20434;-79
2023/01/15 04:18:16;;;;;;;1.00;0.70;;;9.20;90.40;;;;;;5025791;23;20504;-76
2023/01/15 04:20:41;;;;;;;1.20;0.70;;;9.20;89.30;;;;;;4989553;28;20426;-75
2023/01/15 04:23:07;;;;;;;1.30;0.70;;;9.20;90.20;;;;;;4975880;28;20566;-76
2023/01/15 04:25:33;;;;;;;1.53;0.80;;;9.10;87.50;;;;;;4989976;28;20238;-75
2023/01/15 04:27:58;;;;;;;0.90;0.70;;;9.20;88.00;;;;;;4973009;28;20487;-76
2023/01/15 04:30:24;;;;;;;4.70;0.80;;;9.20;89.60;;;;;;4978577;28;20572;-76
2023/01/15 04:32:50;;;;;;;1.00;0.70;;;9.10;89.90;;;;;;4973718;28;20273;-75
2023/01/15 04:35:17;;;;;;;0.90;0.60;;;9.10;85.70;;;;;;4972731;28;20234;-75
2023/01/15 04:37:43;;;;;;;1.23;0.70;;;9.10;88.60;;;;;;4974010;28;20585;-75
2023/01/15 04:44:05;;;;;;;1.10;0.70;;;9.10;89.90;;;;;;4975539;28;20467;-76
2023/01/15 04:45:39;;;;;;;3.30;1.00;;;9.10;91.10;;;;;;4972873;28;20845;-77
2023/01/15 04:48:05;;;;;;;1.10;0.80;;;9.10;92.00;;;;;;4971743;28;20467;-76
2023/01/15 04:50:31;;;;;;;0.90;0.70;;;9.10;91.40;;;;;;4972849;28;20210;-75
2023/01/15 04:52:56;;;;;;;1.10;0.80;;;9.10;92.30;;;;;;4970572;28;20222;-75
2023/01/15 04:55:22;;;;;;;1.00;0.80;;;9.10;92.90;;;;;;4972142;28;20188;-75
2023/01/15 04:57:50;;;;;;;2.03;0.90;;;9.20;93.90;;;;;;4971827;28;20589;-76
2023/01/15 05:00:16;;;;;;;1.17;0.90;;;9.20;94.80;;;;;;4971384;28;20179;-76
2023/01/15 05:02:42;;;;;;;1.20;1.10;;;9.20;95.00;;;;;;4971005;28;20435;-75
2023/01/15 05:05:08;;;;;;;2.70;1.30;;;9.20;93.50;;;;;;4970300;28;20786;-75
2023/01/15 05:07:33;;;;;;;1.50;1.30;;;9.20;94.70;;;;;;4973518;28;20718;-76
2023/01/15 05:09:59;;;;;;;1.30;1.20;;;9.10;94.80;;;;;;4970893;28;20217;-77
2023/01/15 05:12:25;;;;;;;8.60;1.30;;;9.10;94.40;;;;;;4973106;28;20211;-76
2023/01/15 05:14:50;;;;;;;1.90;1.13;;;9.10;94.60;;;;;;4972830;28;20550;-75
2023/01/15 05:17:16;;;;;;;2.00;1.30;;;9.00;96.00;;;;;;4970866;28;20275;-76
2023/01/15 05:19:41;;;;;;;3.40;1.43;;;9.00;97.00;;;;;;4963873;28;20224;-75
2023/01/15 05:22:08;;;;;;;1.10;0.97;;;9.00;96.70;;;;;;4976977;28;20267;-76
2023/01/15 05:24:35;;;;;;;1.20;1.00;;;9.00;97.70;;;;;;4969883;28;20186;-75
2023/01/15 05:27:01;;;;;;;1.50;1.00;;;9.00;98.20;;;;;;4976834;28;20821;-75
2023/01/15 05:29:27;;;;;;;1.00;0.80;;;9.00;98.60;;;;;;4971333;28;20210;-75
2023/01/15 05:31:52;;;;;;;1.00;0.80;;;9.00;95.90;;;;;;4969205;28;20435;-75
2023/01/15 05:34:18;;;;;;;1.30;0.93;;;8.90;91.50;;;;;;4970275;28;20215;-77
2023/01/15 05:36:43;;;;;;;1.20;0.80;;;8.80;93.70;;;;;;4969595;28;20275;-75
2023/01/15 05:39:09;;;;;;;1.07;0.97;;;8.80;96.50;;;;;;4972949;28;20208;-75
2023/01/15 05:41:51;;;;;;;1.00;0.90;;;8.70;91.50;;;;;;4971034;28;20199;-75
2023/01/15 05:44:28;;;;;;;3.97;1.33;;;8.70;94.30;;;;;;4978952;28;20191;-76
2023/01/15 05:47:01;;;;;;;1.00;0.80;;;8.70;95.70;;;;;;4971966;28;20478;-75
2023/01/15 05:49:28;;;;;;;1.00;0.80;;;8.60;95.80;;;;;;4987098;28;20463;-75
2023/01/15 05:51:54;;;;;;;1.00;0.70;;;8.60;97.50;;;;;;4979808;28;20451;-75
2023/01/15 05:54:25;;;;;;;1.50;0.80;;;8.60;93.70;;;;;;4974152;28;20525;-75
2023/01/15 05:56:51;;;;;;;1.30;0.70;;;8.50;93.90;;;;;;4982294;28;20569;-76
2023/01/15 05:59:20;;;;;;;0.90;0.70;;;8.50;95.80;;;;;;4975503;28;20518;-75
2023/01/15 06:01:45;;;;;;;1.73;0.90;;;8.50;93.50;;;;;;4978625;28;20447;-76
2023/01/15 06:04:13;;;;;;;1.83;0.80;;;8.50;96.30;;;;;;4981988;28;20553;-76
2023/01/15 06:06:39;;;;;;;1.20;1.10;;;8.40;96.30;;;;;;4975076;28;20187;-77
2023/01/15 06:09:05;;;;;;;1.00;0.90;;;8.40;93.00;;;;;;4976891;28;20478;-77
2023/01/15 06:11:31;;;;;;;0.90;0.73;;;8.40;93.00;;;;;;4972483;28;20497;-75
2023/01/15 06:13:58;;;;;;;1.00;0.80;;;8.30;92.20;;;;;;4976812;28;20282;-75
2023/01/15 06:16:24;;;;;;;1.00;0.80;;;8.30;92.10;;;;;;4972904;28;20454;-77
2023/01/15 06:18:49;;;;;;;1.00;0.80;;;8.20;90.60;;;;;;4974133;28;21051;-75
2023/01/15 06:21:15;;;;;;;1.67;1.10;;;8.20;86.60;;;;;;4972731;28;20188;-75
2023/01/15 06:23:41;;;;;;;1.70;1.20;;;8.10;90.70;;;;;;4972325;28;20184;-75
2023/01/15 06:26:17;;;;;;;2.30;1.83;;;8.10;90.00;;;;;;4972821;28;20187;-75
2023/01/15 06:28:44;;;;;;;4.97;2.90;;;8.10;88.90;;;;;;4980233;28;20952;-75
2023/01/15 06:31:12;;;;;;;3.57;2.57;;;8.00;85.70;;;;;;4974363;28;20442;-75
2023/01/15 06:33:38;;;;;;;1.87;1.73;;;8.00;79.90;;;;;;4971917;28;20479;-75
2023/01/15 06:36:15;;;;;;;2.10;1.10;;;7.90;78.30;;;;;;4975215;28;20449;-75
2023/01/15 06:38:42;;;;;;;1.63;1.20;;;7.90;80.80;;;;;;4972504;28;20466;-75
2023/01/15 06:49:29;;;;;;;1.30;1.20;;;7.70;80.60;;;;;;4971286;28;20873;-75
2023/01/15 06:51:54;;;;;;;2.13;0.90;;;7.70;76.90;;;;;;4972272;28;20493;-75
2023/01/15 06:54:20;;;;;;;1.00;0.90;;;7.70;73.90;;;;;;4976202;28;20466;-75
2023/01/15 06:56:45;;;;;;;1.10;1.00;;;7.60;74.80;;;;;;4972399;28;20184;-77
2023/01/15 06:59:11;;;;;;;1.20;1.00;;;7.60;77.60;;;;;;4976015;28;20219;-76
2023/01/15 07:01:36;;;;;;;2.60;1.20;;;7.60;76.20;;;;;;4972011;28;20260;-75
2023/01/15 07:04:02;;;;;;;1.30;1.00;;;7.60;81.90;;;;;;4974213;28;20199;-76
2023/01/15 07:06:28;;;;;;;1.10;1.00;;;7.60;76.30;;;;;;4971580;28;20191;-77
2023/01/15 07:08:53;;;;;;;1.10;1.00;;;7.70;89.60;;;;;;4976649;28;20514;-75
2023/01/15 07:11:19;;;;;;;1.13;1.00;;;7.70;87.10;;;;;;4973713;28;20626;-78
2023/01/15 07:13:44;;;;;;;1.10;1.00;;;7.70;86.30;;;;;;4977544;28;20287;-76
2023/01/15 07:16:25;;;;;;;1.73;1.07;;;7.80;82.40;;;;;;4972957;28;20191;-75
2023/01/15 07:18:52;;;;;;;1.20;0.80;;;7.80;82.50;;;;;;4969161;28;20208;-75
2023/01/15 07:21:18;;;;;;;1.33;1.10;;;7.80;74.80;;;;;;4973234;28;20420;-75
2023/01/15 07:23:43;;;;;;;1.23;0.93;;;7.80;77.40;;;;;;4978763;28;20439;-76
2023/01/15 07:26:09;;;;;;;0.90;0.80;;;7.70;76.00;;;;;;4973641;28;20202;-76
2023/01/15 07:28:34;;;;;;;0.90;0.80;;;7.70;81.70;;;;;;4973873;28;20208;-75
2023/01/15 07:31:00;;;;;;;2.07;1.10;;;7.70;89.60;;;;;;4971774;28;20203;-75
2023/01/15 07:33:25;;;;;;;1.80;1.70;;;7.80;91.40;;;;;;4972174;28;20712;-76
2023/01/15 07:35:51;;;;;;;1.37;1.00;;;7.80;91.90;;;;;;4972378;28;20318;-75
2023/01/15 07:38:16;;;;;;;1.00;0.70;;;7.80;89.80;;;;;;4974207;28;20597;-75
2023/01/15 07:40:42;;;;;;;1.00;0.83;;;7.80;92.50;;;;;;4972310;28;20176;-75
2023/01/15 07:51:21;;;;;;;1.10;1.00;;;7.70;84.20;;;;;;4975411;28;20501;-79
2023/01/15 07:53:47;;;;;;;1.30;1.00;;;7.70;88.70;;;;;;4971813;28;20479;-75
2023/01/15 07:56:13;;;;;;;2.03;1.87;;;7.70;88.90;;;;;;4965899;28;20258;-76
2023/01/15 07:58:38;;;;;;;1.80;1.50;;;7.50;75.90;;;;;;4969129;28;21263;-75
2023/01/15 08:01:04;;;;;;;1.53;0.90;;;7.50;82.10;;;;;;4971282;28;20183;-75
2023/01/15 08:03:29;;;;;;;1.10;1.00;;;7.60;85.10;;;;;;4971971;28;20180;-76
2023/01/15 08:05:54;;;;;;;1.40;1.00;;;7.50;80.30;;;;;;4971483;28;20188;-76
2023/01/15 08:08:20;;;;;;;0.90;0.80;;;7.40;72.60;;;;;;4972190;28;20730;-75
2023/01/15 08:16:14;;;;;;;1.00;0.90;;;7.60;98.50;;;;;;4970318;28;20444;-73
2023/01/15 08:18:40;;;;;;;2.03;1.23;;;7.50;52.40;;;;;;4967997;28;20455;-73
2023/01/15 08:21:05;;;;;;;1.10;1.00;;;7.40;67.50;;;;;;4971744;28;20650;-73
2023/01/15 08:23:31;;;;;;;2.57;1.83;;;7.30;55.30;;;;;;4971546;28;20187;-73
2023/01/15 08:26:00;;;;;;;11.77;4.80;;;7.20;67.80;;;;;;4970138;28;20625;-76
2023/01/15 08:28:26;;;;;;;1.00;0.80;;;7.20;65.00;;;;;;4971288;28;20204;-75
2023/01/15 08:30:51;;;;;;;1.00;0.80;;;7.20;47.90;;;;;;4972105;28;20431;-75
2023/01/15 08:33:17;;;;;;;1.97;1.57;;;7.10;60.30;;;;;;4972046;28;20208;-76
2023/01/15 08:35:42;;;;;;;2.53;1.70;;;7.00;51.80;;;;;;4970327;28;20175;-76
2023/01/15 08:38:08;;;;;;;1.10;1.00;;;6.90;59.10;;;;;;4972007;28;20206;-76
2023/01/15 08:40:57;;;;;;;1.00;0.87;;;7.00;57.70;;;;;;4971554;28;20268;-75
2023/01/15 08:43:20;;;;;;;1.30;1.07;;;6.90;65.90;;;;;;4972170;28;20196;-78
2023/01/15 08:45:46;;;;;;;1.10;1.00;;;6.90;63.90;;;;;;4970512;28;20438;-73
2023/01/15 08:48:11;;;;;;;0.93;0.80;;;6.90;63.80;;;;;;4977644;28;20207;-75
2023/01/15 08:50:37;;;;;;;1.43;0.90;;;6.90;61.30;;;;;;4973034;28;20221;-75
2023/01/15 08:53:03;;;;;;;1.20;1.10;;;6.90;65.70;;;;;;4974369;28;20239;-75
2023/01/15 08:55:28;;;;;;;1.40;1.30;;;6.90;61.20;;;;;;4970955;28;20538;-75
2023/01/15 08:57:54;;;;;;;1.40;0.90;;;6.90;57.30;;;;;;4973861;28;20204;-76
2023/01/15 09:00:20;;;;;;;1.30;1.10;;;6.90;64.10;;;;;;4970741;28;20638;-75
2023/01/15 09:02:46;;;;;;;1.00;0.90;;;6.90;67.60;;;;;;4980811;28;20666;-76
2023/01/15 09:05:11;;;;;;;2.50;1.40;;;6.90;63.30;;;;;;4973480;28;21174;-75
2023/01/15 09:07:36;;;;;;;2.10;1.90;;;6.90;59.10;;;;;;4971397;28;20214;-75
2023/01/15 09:10:03;;;;;;;2.07;1.87;;;6.80;56.30;;;;;;4973182;28;20212;-75
2023/01/15 09:12:29;;;;;;;1.47;1.37;;;6.90;68.60;;;;;;4974362;28;20258;-76
2023/01/15 09:14:55;;;;;;;1.60;1.50;;;6.90;51.80;;;;;;4970322;28;20813;-76
2023/01/15 09:17:20;;;;;;;1.30;1.20;;;6.80;54.40;;;;;;4978136;28;20442;-78
2023/01/15 09:19:46;;;;;;;1.53;1.43;;;6.80;57.20;;;;;;4972722;28;20198;-75
2023/01/15 09:22:11;;;;;;;1.73;1.50;;;6.80;53.30;;;;;;4973860;28;20571;-76
2023/01/15 09:24:37;;;;;;;2.10;1.90;;;6.80;52.00;;;;;;4970119;28;20195;-76
2023/01/15 09:27:02;;;;;;;1.33;0.97;;;6.90;51.10;;;;;;4972836;28;20254;-76
2023/01/15 09:29:28;;;;;;;1.63;1.13;;;6.80;49.30;;;;;;4975056;28;20223;-75
2023/01/15 09:31:53;;;;;;;4.97;2.57;;;6.80;53.70;;;;;;4975537;28;20609;-75
2023/01/15 09:34:19;;;;;;;2.17;1.57;;;6.80;54.10;;;;;;4971684;28;20211;-75
2023/01/15 09:36:45;;;;;;;5.43;2.93;;;6.80;47.30;;;;;;4976801;28;20189;-75
2023/01/15 09:39:11;;;;;;;2.93;1.90;;;6.80;45.60;;;;;;4977152;28;20768;-75
2023/01/15 09:42:12;;;;;;;2.60;1.50;;;6.70;48.70;;;;;;4976518;28;20490;-75
2023/01/15 09:44:49;;;;;;;2.90;1.60;;;6.70;46.80;;;;;;4977230;28;20202;-77
2023/01/15 09:47:17;;;;;;;1.20;0.80;;;6.70;44.80;;;;;;4977410;28;20474;-76
2023/01/15 09:49:48;;;;;;;1.10;1.00;;;6.70;36.40;;;;;;4981418;28;20442;-76
2023/01/15 09:52:33;;;;;;;1.33;1.10;;;6.70;45.20;;;;;;4975061;28;20423;-76
2023/01/15 09:55:21;;;;;;;1.00;0.90;;;6.70;46.30;;;;;;4981410;28;20434;-76
2023/01/15 09:57:51;;;;;;;1.30;1.10;;;6.70;47.10;;;;;;4973785;28;20516;-76
2023/01/15 10:00:24;;;;;;;1.10;0.90;;;6.70;36.50;;;;;;4975543;28;20482;-77
2023/01/15 10:03:10;;;;;;;1.10;1.00;;;6.80;36.30;;;;;;4975148;28;20426;-75
2023/01/15 10:05:59;;;;;;;1.20;1.10;;;6.80;36.40;;;;;;4972116;28;20983;-75
2023/01/15 10:08:33;;;;;;;1.30;1.10;;;6.80;36.30;;;;;;4972357;28;20462;-76
2023/01/15 10:11:03;;;;;;;1.40;1.20;;;6.80;36.40;;;;;;4980043;28;20442;-74
2023/01/15 10:13:58;;;;;;;1.40;1.27;;;7.00;39.30;;;;;;4972315;28;20537;-80
2023/01/15 10:16:27;;;;;;;1.60;1.17;;;7.10;36.60;;;;;;4970495;28;20423;-74
2023/01/15 10:18:56;;;;;;;1.87;1.00;;;7.00;36.50;;;;;;4982787;23;20867;-78
2023/01/15 10:21:22;;;;;;;1.00;0.90;;;7.00;36.50;;;;;;4953601;28;20424;-78
2023/01/15 10:24:17;;;;;;;1.00;0.90;;;7.00;28.50;;;;;;4954066;28;21025;-78
2023/01/15 10:26:55;;;;;;;1.20;1.10;;;6.90;36.40;;;;;;4954062;28;20185;-78
2023/01/15 10:29:35;;;;;;;1.20;1.00;;;7.00;36.50;;;;;;4948950;28;20436;-78
2023/01/15 10:32:07;;;;;;;1.77;0.97;;;7.00;26.10;;;;;;4947454;28;20938;-78
2023/01/15 10:34:59;;;;;;;1.63;1.10;;;6.70;26.50;;;;;;4953745;28;20467;-78
2023/01/15 10:37:37;;;;;;;2.57;1.03;;;7.00;22.90;;;;;;4953891;28;20437;-78
2023/01/15 10:40:29;;;;;;;1.67;1.23;;;7.10;22.00;;;;;;4944806;28;21015;-77
2023/01/15 10:43:09;;;;;;;4.33;2.10;;;7.10;28.70;;;;;;4950223;28;20499;-77
2023/01/15 10:45:42;;;;;;;1.60;1.00;;;7.20;20.10;;;;;;4950396;28;21021;-77
2023/01/15 10:48:07;;;;;;;5.63;3.23;;;7.20;16.70;;;;;;4949375;28;20806;-77
2023/01/15 10:50:34;;;;;;;1.43;1.23;;;7.20;13.10;;;;;;4952418;28;20424;-78
2023/01/15 10:53:28;;;;;;;1.30;1.20;;;7.20;13.70;;;;;;4951970;28;20200;-77
2023/01/15 10:56:11;;;;;;;2.13;1.37;;;7.30;10.70;;;;;;4952395;28;20444;-77
2023/01/15 10:58:51;;;;;;;1.30;1.20;;;7.30;6.10;;;;;;4953918;28;20436;-77
2023/01/15 11:01:22;;;;;;;3.43;1.43;;;7.20;4.80;;;;;;4953131;28;20434;-76
2023/01/15 11:03:48;;;;;;;4.30;1.33;;;7.20;1.00;;;;;;4953330;28;20436;-77
2023/01/15 11:06:16;;;;;;;2.77;1.10;;;7.20;1.00;;;;;;4953797;28;20427;-77
2023/01/15 11:08:53;;;;;;;7.20;4.03;;;7.20;1.00;;;;;;4953539;28;20454;-77
2023/01/15 11:20:29;;;;;;;1.60;1.40;;;7.30;1.00;;;;;;4947831;28;20941;-78
2023/01/15 11:22:56;;;;;;;2.60;1.40;;;7.30;1.00;;;;;;4952263;28;20432;-78
2023/01/15 11:25:28;;;;;;;1.80;1.50;;;7.30;1.00;;;;;;4950681;28;20495;-78
2023/01/15 11:27:54;;;;;;;2.37;1.20;;;7.30;1.00;;;;;;4952651;28;20494;-78
2023/01/15 11:30:36;;;;;;;1.20;0.90;;;7.30;1.00;;;;;;4953869;28;20429;-78
2023/01/15 11:33:06;;;;;;;1.57;1.47;;;7.30;1.00;;;;;;4952359;28;20686;-78
2023/01/15 11:35:33;;;;;;;1.57;1.00;;;7.30;1.00;;;;;;4952712;28;20807;-78
2023/01/15 11:38:06;;;;;;;1.57;1.13;;;7.40;1.00;;;;;;4951709;28;20423;-77
2023/01/15 11:40:32;;;;;;;1.80;1.40;;;7.30;1.00;;;;;;4953902;28;20431;-77
2023/01/15 11:51:34;;;;;;;2.70;1.27;;;7.60;1.00;;;;;;4948886;28;20547;-77
2023/01/15 11:54:07;;;;;;;6.03;1.77;;;7.50;1.00;;;;;;4947836;28;20468;-77
2023/01/15 11:56:34;;;;;;;1.97;0.90;;;7.80;1.00;;;;;;4951725;28;20439;-78
2023/01/15 11:59:10;;;;;;;2.50;1.27;;;7.60;1.00;;;;;;4953291;28;20519;-78
2023/01/15 12:01:44;;;;;;;4.10;1.40;;;7.60;1.00;;;;;;4952871;28;20535;-75
2023/01/15 12:04:30;;;;;;;3.20;1.47;;;7.70;1.00;;;;;;4953243;28;20467;-77
2023/01/15 12:06:56;;;;;;;2.30;2.03;;;7.60;1.00;;;;;;4955097;28;21093;-77
2023/01/15 12:09:28;;;;;;;7.53;3.40;;;7.50;1.00;;;;;;4947844;28;20456;-78
2023/01/15 12:12:12;;;;;;;1.33;1.03;;;7.40;1.00;;;;;;4952206;28;20519;-77
2023/01/15 12:15:07;;;;;;;1.60;1.50;;;7.70;1.00;;;;;;4952298;28;20436;-77
2023/01/15 12:17:54;;;;;;;4.57;2.30;;;8.50;1.00;;;;;;4954650;28;20495;-77
2023/01/15 12:20:37;;;;;;;4.83;2.10;;;9.30;1.00;;;;;;4947354;28;20424;-78
2023/01/15 12:23:24;;;;;;;1.30;1.00;;;10.70;1.00;;;;;;4944762;28;20856;-77
2023/01/15 12:26:17;;;;;;;1.40;1.20;;;10.90;1.00;;;;;;4950862;28;20467;-78
2023/01/15 12:29:08;;;;;;;1.73;1.00;;;10.30;1.00;;;;;;4952481;28;20499;-78
2023/01/15 12:31:51;;;;;;;4.30;1.93;;;9.20;1.00;;;;;;4952542;28;20428;-77
2023/01/15 12:34:25;;;;;;;6.40;2.40;;;8.80;1.00;;;;;;4958315;28;20468;-78
2023/01/15 12:36:53;;;;;;;1.50;1.00;;;8.60;1.00;;;;;;4950783;28;20426;-77
2023/01/15 12:39:29;;;;;;;1.57;1.10;;;9.00;1.00;;;;;;4952444;28;20443;-78
2023/01/15 12:44:59;;;;;;;1.47;1.10;;;12.50;1.00;;;;;;4951540;28;20544;-78
2023/01/15 12:47:28;;;;;;;4.17;1.30;;;12.40;1.00;;;;;;4950920;28;20438;-78
2023/01/15 12:50:12;;;;;;;4.30;2.10;;;12.40;1.00;;;;;;4951950;28;20459;-77
2023/01/15 12:52:42;;;;;;;10.07;3.43;;;14.30;1.00;;;;;;4936801;28;20502;-77
2023/01/15 12:55:19;;;;;;;2.87;1.70;;;16.10;1.00;;;;;;4944675;28;20925;-78
2023/01/15 12:57:50;;;;;;;2.70;1.87;;;18.10;1.00;;;;;;4952064;28;20423;-78
2023/01/15 13:00:25;;;;;;;4.00;1.33;;;18.60;1.00;;;;;;4951289;28;20424;-78
2023/01/15 13:03:13;;;;;;;4.30;2.50;;;18.10;1.00;;;;;;4950086;28;20431;-78
2023/01/15 13:05:41;;;;;;;5.23;3.00;;;18.00;1.00;;;;;;4931459;28;20844;-78
2023/01/15 13:08:27;;;;;;;6.07;2.30;;;17.80;1.00;;;;;;4946146;28;20977;-78
2023/01/15 13:10:53;;;;;;;3.60;1.67;;;16.30;1.00;;;;;;4951129;28;20482;-78
2023/01/15 13:13:39;;;;;;;5.47;2.73;;;14.70;1.00;;;;;;4951418;28;20475;-78
2023/01/15 13:16:33;;;;;;;3.50;1.97;;;12.50;1.00;;;;;;4945796;28;20180;-78
2023/01/15 13:19:36;;;;;;;2.00;1.40;;;11.30;1.00;;;;;;4950819;28;20829;-78
2023/01/15 13:22:11;;;;;;;4.47;1.87;;;10.20;1.00;;;;;;4951333;28;20420;-78
2023/01/15 13:25:02;;;;;;;5.70;3.30;;;9.70;1.00;;;;;;4951881;28;20557;-78
2023/01/15 13:27:55;;;;;;;10.53;2.50;;;9.40;1.00;;;;;;4947083;28;20432;-78
2023/01/15 13:30:39;;;;;;;2.13;1.40;;;9.10;1.00;;;;;;4944889;28;20443;-78
2023/01/15 13:33:16;;;;;;;4.33;1.60;;;8.90;1.00;;;;;;4951739;28;21016;-78
2023/01/15 13:35:47;;;;;;;6.27;1.40;;;8.70;1.00;;;;;;4951340;28;20416;-77
2023/01/15 13:38:20;;;;;;;3.43;2.10;;;8.70;1.00;;;;;;4943644;28;20456;-78
2023/01/15 13:40:50;;;;;;;2.00;1.20;;;8.70;1.00;;;;;;4951151;28;20931;-78
2023/01/15 13:43:35;;;;;;;11.27;1.83;;;8.60;1.00;;;;;;4950801;28;20433;-78
2023/01/15 13:46:04;;;;;;;2.50;2.10;;;8.70;1.00;;;;;;4951245;28;20867;-78
2023/01/15 13:48:34;;;;;;;6.83;2.80;;;8.70;1.00;;;;;;4951738;28;20834;-78
2023/01/15 13:51:03;;;;;;;9.13;3.27;;;8.60;1.00;;;;;;4949916;28;20527;-78
2023/01/15 13:53:38;;;;;;;2.90;1.60;;;8.70;1.00;;;;;;4951790;28;20468;-78
2023/01/15 13:56:11;;;;;;;4.37;2.20;;;8.60;1.00;;;;;;4949939;28;20993;-77
2023/01/15 13:58:55;;;;;;;2.33;1.80;;;8.70;1.00;;;;;;4952279;28;20452;-78
2023/01/15 14:01:30;;;;;;;2.60;1.20;;;8.80;1.00;;;;;;4944358;28;20483;-78
2023/01/15 14:04:11;;;;;;;2.30;1.80;;;8.70;1.00;;;;;;4951172;28;21021;-77
2023/01/15 14:06:40;;;;;;;3.73;1.50;;;8.60;1.00;;;;;;4949604;28;20479;-78